Mineral Point, Pennsylvania
Current Conditions -  °F | °C
As of 9:20 AM on Tuesday 27 Jan 2015 (Local Time) from KJST Reporting Station
Light Snow Light Snow  
Wind Chill:   Ceiling: 600
Heat Index: 16°   Visibility: 1.5mi
Dew Point: 13°   Wind: 14mph
Humidity: 88%   Direction: 300°WNW
Pressure: 29.77"   Gusts: NA
Location:  40.38°N, 78.84°W
Report Text: KJST 271420Z AUTO 30012KT 1 1/2SM -SN BR OVC006 M09/M11 A2977 RMK AO2 CIG 004V009 P0000 T10891106
Loading
Personal Weather Stations






























Interactive Weather Map New forecast layout! Learn more

10-Day Weather Forecast

Advertisements
Track Severe Weather on mobile